Time;durP1;ratioP1;P1;durP2;ratioP2;P2;SDS_P1;SDS_P2;PMS_P1;PMS_P2;Temp;Humidity;BMP_temperature;BMP_pressure;BME280_temperature;BME280_humidity;BME280_pressure;Samples;Min_cycle;Max_cycle;Signal;HPM_P1;HPM_P2
2022/07/30 00:01:17;;;;;;;0.03;0.03;;;;;;;19.97;60.47;101966.13;5041965;28;20079;-79
2022/07/30 00:03:43;;;;;;;0.10;0.10;;;;;;;19.96;61.05;101960.81;5050524;28;20111;-78
2022/07/30 00:06:09;;;;;;;0.10;0.10;;;;;;;19.93;60.98;101961.81;5052331;28;20078;-79
2022/07/30 00:08:35;;;;;;;0.10;0.10;;;;;;;19.89;61.18;101957.50;5045213;28;20059;-79
2022/07/30 00:11:01;;;;;;;0.00;0.00;;;;;;;19.87;60.94;101960.25;5046236;28;20107;-80
2022/07/30 00:13:28;;;;;;;0.00;0.00;;;;;;;19.86;60.60;101957.63;5049253;28;20025;-80
2022/07/30 00:15:54;;;;;;;0.10;0.10;;;;;;;19.84;61.52;101960.38;5047120;28;20025;-80
2022/07/30 00:18:20;;;;;;;0.08;0.08;;;;;;;19.84;60.83;101955.00;5043849;28;20228;-81
2022/07/30 00:20:47;;;;;;;0.20;0.20;;;;;;;19.80;61.04;101958.75;5054776;28;20047;-80
2022/07/30 00:23:13;;;;;;;0.00;0.00;;;;;;;19.78;61.14;101955.22;5057854;28;20061;-80
2022/07/30 00:25:40;;;;;;;0.80;0.22;;;;;;;19.77;61.03;101958.00;5061998;28;20036;-80
2022/07/30 00:28:06;;;;;;;0.00;0.00;;;;;;;19.75;61.27;101954.47;5055994;28;20067;-80
2022/07/30 00:30:32;;;;;;;0.05;0.05;;;;;;;19.72;61.40;101955.47;5054774;28;20404;-80
2022/07/30 00:32:58;;;;;;;0.00;0.00;;;;;;;19.70;61.34;101942.09;5062078;28;20033;-80
2022/07/30 00:35:24;;;;;;;0.10;0.10;;;;;;;19.68;61.34;101943.97;5066250;28;20068;-80
2022/07/30 00:37:50;;;;;;;0.10;0.10;;;;;;;19.65;61.56;101932.47;5055371;28;20033;-80
2022/07/30 00:40:17;;;;;;;0.28;0.28;;;;;;;19.62;61.66;101933.47;5056932;28;20116;-80
2022/07/30 00:42:45;;;;;;;0.00;0.00;;;;;;;19.61;61.30;101931.72;5055752;28;20041;-80
2022/07/30 00:45:12;;;;;;;0.05;0.05;;;;;;;19.58;61.55;101928.28;5048416;28;20036;-79
2022/07/30 00:47:39;;;;;;;0.25;0.25;;;;;;;19.56;61.39;101937.28;5060272;28;20025;-80
2022/07/30 00:50:08;;;;;;;0.05;0.05;;;;;;;19.54;61.32;101941.00;5047018;28;20036;-79
2022/07/30 00:52:37;;;;;;;0.25;0.25;;;;;;;19.51;61.49;101941.09;5054955;28;20025;-80
2022/07/30 00:55:04;;;;;;;0.10;0.10;;;;;;;19.49;60.80;101937.59;5051798;28;20051;-80
2022/07/30 00:57:30;;;;;;;0.00;0.00;;;;;;;19.47;60.85;101936.78;5056990;28;20028;-80
2022/07/30 00:59:57;;;;;;;0.20;0.20;;;;;;;19.42;61.75;101936.09;5056610;28;20029;-79
2022/07/30 01:02:23;;;;;;;0.00;0.00;;;;;;;19.42;61.47;101931.59;5053065;28;20033;-79
2022/07/30 01:04:50;;;;;;;0.10;0.10;;;;;;;19.42;61.44;101945.03;5049483;28;20033;-79
2022/07/30 01:07:16;;;;;;;0.10;0.10;;;;;;;19.39;61.52;101937.97;5061688;28;20104;-79
2022/07/30 01:09:42;;;;;;;0.00;0.00;;;;;;;19.37;61.75;101939.81;5057264;28;20040;-79
2022/07/30 01:12:09;;;;;;;0.05;0.05;;;;;;;19.37;61.73;101942.50;5049073;28;20033;-80
2022/07/30 01:14:37;;;;;;;0.00;0.00;;;;;;;19.35;61.51;101941.72;5045552;28;20048;-80
2022/07/30 01:17:04;;;;;;;0.00;0.00;;;;;;;19.33;61.77;101943.56;5037604;28;20485;-80
2022/07/30 01:20:05;;;;;;;0.03;0.03;;;;;;;19.31;60.76;101939.19;5047187;28;20656;-80
2022/07/30 01:25:44;;;;;;;0.00;0.00;;;;;;;19.33;61.75;101943.56;5099361;27;20415;-78
2022/07/30 01:28:14;;;;;;;0.00;0.00;;;;;;;19.25;61.54;101934.94;5089002;28;20036;-79
2022/07/30 01:30:43;;;;;;;0.10;0.10;;;;;;;19.24;61.94;101934.06;5098024;28;20037;-79
2022/07/30 01:33:13;;;;;;;0.00;0.00;;;;;;;19.23;61.50;101939.50;5103829;28;20110;-79
2022/07/30 01:35:41;;;;;;;0.43;0.43;;;;;;;19.17;61.84;101937.06;5096980;28;20377;-79
2022/07/30 01:38:10;;;;;;;0.10;0.10;;;;;;;19.13;62.54;101935.41;5095253;28;20028;-79
2022/07/30 01:40:38;;;;;;;0.00;0.00;;;;;;;19.12;61.63;101931.84;5095231;28;20100;-79
2022/07/30 01:43:06;;;;;;;0.03;0.03;;;;;;;19.12;61.32;101925.63;5092044;28;20495;-80
2022/07/30 01:45:33;;;;;;;0.00;0.00;;;;;;;19.06;61.88;101922.22;5102679;28;20111;-80
2022/07/30 01:48:04;;;;;;;0.20;0.20;;;;;;;19.06;61.56;101927.59;5095079;28;20031;-80
2022/07/30 01:50:31;;;;;;;0.10;0.10;;;;;;;19.03;61.64;101927.72;5095399;28;20036;-79
2022/07/30 01:52:57;;;;;;;0.10;0.10;;;;;;;19.01;61.17;101937.63;5093175;28;20450;-78
2022/07/30 01:55:33;;;;;;;0.00;0.00;;;;;;;19.03;61.71;101934.91;5091467;28;20116;-79
2022/07/30 01:58:02;;;;;;;0.03;0.03;;;;;;;19.00;61.95;101933.19;5102699;28;20446;-78
2022/07/30 02:00:29;;;;;;;0.10;0.10;;;;;;;19.00;60.95;101933.19;5096619;28;20024;-80
2022/07/30 02:02:56;;;;;;;0.10;0.10;;;;;;;18.98;61.30;101932.41;5088029;28;20028;-78
2022/07/30 02:05:23;;;;;;;0.10;0.10;;;;;;;18.95;61.88;101927.13;5107192;28;20036;-77
2022/07/30 02:07:57;;;;;;;0.10;0.10;;;;;;;18.96;62.09;101934.25;5100837;28;20082;-79
2022/07/30 02:13:11;;;;;;;0.00;0.00;;;;;;;18.91;61.84;101930.88;5094843;27;20413;-78
2022/07/30 02:21:05;;;;;;;0.10;0.10;;;;;;;18.87;61.18;101935.44;5096547;28;20382;-80
2022/07/30 02:23:39;;;;;;;0.00;0.00;;;;;;;18.83;62.17;101941.88;5073485;28;20032;-80
2022/07/30 02:26:08;;;;;;;0.00;0.00;;;;;;;18.80;62.78;101941.09;5074561;28;20033;-79
2022/07/30 02:28:38;;;;;;;0.00;0.00;;;;;;;18.80;62.04;101949.16;5079194;28;20488;-81
2022/07/30 02:31:07;;;;;;;0.13;0.13;;;;;;;18.75;63.12;101941.25;5077244;28;20021;-80
2022/07/30 02:33:38;;;;;;;0.13;0.13;;;;;;;18.76;62.75;101948.41;5072845;28;20033;-78
2022/07/30 02:36:08;;;;;;;0.10;0.10;;;;;;;18.73;63.05;101946.69;5058595;28;20040;-79
2022/07/30 02:38:35;;;;;;;0.00;0.00;;;;;;;18.72;62.53;101947.63;5073507;28;20029;-79
2022/07/30 02:41:03;;;;;;;0.10;0.10;;;;;;;18.70;62.94;101938.75;5062391;28;20525;-79
2022/07/30 02:43:31;;;;;;;0.05;0.05;;;;;;;18.66;63.31;101938.94;5066310;28;20025;-79
2022/07/30 02:45:59;;;;;;;1.63;0.35;;;;;;;18.64;63.48;101944.38;5071197;28;20032;-78
2022/07/30 02:48:27;;;;;;;0.00;0.00;;;;;;;18.64;63.18;101938.09;5065236;28;20056;-80
2022/07/30 02:50:57;;;;;;;0.38;0.38;;;;;;;18.63;62.69;101937.25;5066591;28;20071;-79
2022/07/30 02:53:25;;;;;;;0.10;0.10;;;;;;;18.64;63.19;101932.72;5069259;28;20107;-81
2022/07/30 02:55:54;;;;;;;0.00;0.00;;;;;;;18.63;62.49;101921.13;5068696;28;20028;-80
2022/07/30 02:58:24;;;;;;;0.10;0.10;;;;;;;18.62;63.09;101924.75;5078069;28;20082;-79
2022/07/30 03:00:53;;;;;;;0.00;0.00;;;;;;;18.61;63.37;101923.00;5074474;28;20079;-80
2022/07/30 03:03:20;;;;;;;0.00;0.00;;;;;;;18.59;62.76;101930.22;5073911;28;20107;-80
2022/07/30 03:05:50;;;;;;;0.08;0.08;;;;;;;18.55;63.43;101924.06;5070429;28;20025;-79
2022/07/30 03:08:16;;;;;;;0.00;0.00;;;;;;;18.54;62.94;101930.41;5066138;28;20036;-80
2022/07/30 03:10:45;;;;;;;0.10;0.10;;;;;;;18.55;62.89;101931.25;5069755;28;20045;-79
2022/07/30 03:13:12;;;;;;;0.00;0.00;;;;;;;18.53;62.89;101928.66;5060406;28;20048;-79
2022/07/30 03:15:43;;;;;;;0.05;0.05;;;;;;;18.55;62.95;101933.94;5072698;28;20040;-79
2022/07/30 03:18:13;;;;;;;0.10;0.10;;;;;;;18.53;63.00;101947.44;5069018;28;20033;-80
2022/07/30 03:20:41;;;;;;;0.10;0.10;;;;;;;18.52;63.11;101942.13;5075662;28;20397;-78
2022/07/30 03:23:10;;;;;;;0.10;0.10;;;;;;;18.53;63.04;101946.53;5072392;28;20381;-79
2022/07/30 03:25:38;;;;;;;0.35;0.35;;;;;;;18.48;63.46;101949.41;5070321;28;20029;-80
2022/07/30 03:28:06;;;;;;;0.10;0.10;;;;;;;18.49;62.92;101947.59;5062538;28;20032;-80
2022/07/30 03:30:34;;;;;;;0.10;0.10;;;;;;;18.49;63.04;101950.28;5059328;28;20531;-79
2022/07/30 03:33:00;;;;;;;0.00;0.00;;;;;;;18.47;63.33;101941.38;5043335;28;20032;-79
2022/07/30 03:35:27;;;;;;;0.00;0.00;;;;;;;18.48;63.34;101951.19;5046978;28;20095;-80
2022/07/30 03:37:54;;;;;;;0.08;0.08;;;;;;;18.47;63.01;101947.66;5053078;28;20084;-79
2022/07/30 03:40:21;;;;;;;0.00;0.00;;;;;;;18.46;63.02;101953.06;5047707;28;20030;-80
2022/07/30 03:42:49;;;;;;;0.00;0.00;;;;;;;18.43;62.75;101952.25;5058273;28;20109;-79
2022/07/30 03:45:17;;;;;;;0.10;0.10;;;;;;;18.42;63.05;101946.94;5056547;28;20148;-79
2022/07/30 03:47:45;;;;;;;0.03;0.03;;;;;;;18.41;62.52;101955.91;5058345;28;20451;-80
2022/07/30 03:50:12;;;;;;;0.03;0.03;;;;;;;18.37;62.63;101949.78;5056408;28;20345;-78
2022/07/30 03:52:40;;;;;;;0.00;0.00;;;;;;;18.36;62.65;101950.69;5045599;28;20021;-79
2022/07/30 03:55:10;;;;;;;0.00;0.00;;;;;;;18.35;62.88;101953.44;5059986;28;20029;-80
2022/07/30 03:57:36;;;;;;;0.10;0.10;;;;;;;18.32;63.00;101965.16;5058799;28;20029;-79
2022/07/30 04:00:11;;;;;;;0.60;0.57;;;;;;;18.34;63.29;101960.59;5044980;28;20037;-80
2022/07/30 04:02:42;;;;;;;0.10;0.10;;;;;;;18.37;62.97;101968.56;5049075;28;20033;-81
2022/07/30 04:05:08;;;;;;;0.10;0.10;;;;;;;18.37;62.90;101957.81;5053956;28;20048;-80
2022/07/30 04:07:34;;;;;;;0.00;0.00;;;;;;;18.36;63.19;101961.44;5053319;28;20086;-79
2022/07/30 04:10:00;;;;;;;0.10;0.10;;;;;;;18.38;62.87;101964.06;5057570;28;20022;-80
2022/07/30 04:12:26;;;;;;;0.00;0.00;;;;;;;18.38;62.39;101964.06;5054993;28;20025;-80
2022/07/30 04:14:53;;;;;;;0.10;0.10;;;;;;;18.38;63.41;101964.06;5052947;28;20174;-80
2022/07/30 04:17:26;;;;;;;0.00;0.00;;;;;;;18.42;62.55;101965.72;5061135;28;20398;-80
2022/07/30 04:19:58;;;;;;;0.00;0.00;;;;;;;18.40;63.50;101973.81;5056588;28;20030;-80
2022/07/30 04:22:30;;;;;;;0.00;0.00;;;;;;;18.45;62.72;101964.72;5050772;28;20040;-79
2022/07/30 04:24:58;;;;;;;0.08;0.08;;;;;;;18.43;62.92;101968.34;5059876;28;20040;-79
2022/07/30 04:27:25;;;;;;;0.15;0.15;;;;;;;18.47;63.08;101978.94;5056574;28;20037;-80
2022/07/30 04:29:53;;;;;;;0.00;0.00;;;;;;;18.46;63.63;101980.78;5061585;28;20512;-80
2022/07/30 04:32:19;;;;;;;0.00;0.00;;;;;;;18.49;62.94;101982.47;5057966;28;20040;-80
2022/07/30 04:34:48;;;;;;;0.20;0.20;;;;;;;18.51;62.45;101975.25;5053877;28;20611;-81
2022/07/30 04:37:17;;;;;;;0.00;0.00;;;;;;;18.54;62.67;101977.81;5054373;28;20048;-79
2022/07/30 04:39:44;;;;;;;0.05;0.05;;;;;;;18.53;63.14;101981.41;5055250;28;20405;-80
2022/07/30 04:42:10;;;;;;;0.00;0.00;;;;;;;18.54;63.25;101981.38;5057318;28;20033;-81
2022/07/30 04:44:37;;;;;;;0.10;0.10;;;;;;;18.57;63.00;101980.41;5058914;28;20040;-80
2022/07/30 04:47:03;;;;;;;0.10;0.10;;;;;;;18.59;62.74;101984.78;5052219;28;20033;-78
2022/07/30 04:49:30;;;;;;;0.00;0.00;;;;;;;18.61;63.46;101978.50;5054189;28;20028;-80
2022/07/30 04:51:57;;;;;;;0.10;0.10;;;;;;;18.63;63.54;101980.19;5061014;28;20029;-80
2022/07/30 04:54:24;;;;;;;0.00;0.00;;;;;;;18.70;63.01;101970.94;5063115;28;20040;-79
2022/07/30 04:56:51;;;;;;;0.00;0.00;;;;;;;18.75;62.85;101974.38;5059139;28;20033;-81
2022/07/30 04:59:19;;;;;;;0.00;0.00;;;;;;;18.81;62.56;101977.75;5060205;28;20045;-79
2022/07/30 05:01:49;;;;;;;0.10;0.10;;;;;;;18.84;62.63;101973.16;5055653;28;20036;-80
2022/07/30 05:04:17;;;;;;;0.20;0.20;;;;;;;18.86;62.34;101975.78;5060768;28;20128;-79
2022/07/30 05:06:43;;;;;;;0.00;0.00;;;;;;;18.87;62.65;101974.84;5051677;28;20060;-80
2022/07/30 05:09:10;;;;;;;1.10;0.43;;;;;;;18.88;62.50;101981.97;5063810;28;20408;-79
2022/07/30 05:11:36;;;;;;;0.00;0.00;;;;;;;18.94;61.79;101981.78;5060036;28;20335;-80
2022/07/30 05:14:03;;;;;;;0.63;0.63;;;;;;;18.91;62.59;101993.50;5060405;28;20036;-80
2022/07/30 05:16:29;;;;;;;0.00;0.00;;;;;;;18.96;62.39;101987.97;5062284;28;20120;-80
2022/07/30 05:18:55;;;;;;;1.88;1.05;;;;;;;18.97;62.32;101987.03;5055168;28;20044;-81
2022/07/30 05:21:21;;;;;;;0.00;0.00;;;;;;;19.00;62.51;101994.09;5071224;22;20083;-83
2022/07/30 05:23:47;;;;;;;0.10;0.10;;;;;;;19.05;61.86;101994.81;5037524;28;20403;-84
2022/07/30 05:26:17;;;;;;;0.10;0.10;;;;;;;19.10;61.79;102000.00;5036577;28;20033;-83
2022/07/30 05:28:43;;;;;;;0.00;0.00;;;;;;;19.13;61.93;102002.56;5034198;28;20048;-84
2022/07/30 05:31:09;;;;;;;0.10;0.10;;;;;;;19.15;61.97;102009.66;5029282;28;20029;-83
2022/07/30 05:33:39;;;;;;;0.00;0.00;;;;;;;19.19;61.55;102005.03;5033431;28;20084;-85
2022/07/30 05:36:05;;;;;;;0.00;0.00;;;;;;;19.24;61.33;102012.00;5031904;28;20056;-82
2022/07/30 05:38:33;;;;;;;0.00;0.00;;;;;;;19.29;61.05;102010.94;5028267;28;20108;-82
2022/07/30 05:40:59;;;;;;;0.10;0.10;;;;;;;19.32;60.89;102011.69;5028288;28;20065;-83
2022/07/30 05:43:25;;;;;;;0.10;0.10;;;;;;;19.32;61.39;102017.06;5031330;28;20037;-83
2022/07/30 05:45:54;;;;;;;0.55;0.55;;;;;;;19.37;60.88;102009.69;5030822;28;20458;-84
2022/07/30 05:48:40;;;;;;;0.00;0.00;;;;;;;19.46;60.88;102018.34;5031487;28;20033;-84
2022/07/30 05:51:28;;;;;;;0.00;0.00;;;;;;;19.49;60.74;102010.16;5028733;28;20407;-87
2022/07/30 05:54:16;;;;;;;0.05;0.05;;;;;;;19.50;60.47;102023.56;5032550;28;20033;-85
2022/07/30 05:57:02;;;;;;;0.10;0.10;;;;;;;19.54;60.26;102010.88;5026624;28;20087;-85
2022/07/30 05:59:49;;;;;;;1.30;0.55;;;;;;;19.56;60.11;102022.41;5027683;28;20563;-84
2022/07/30 06:02:35;;;;;;;0.10;0.10;;;;;;;19.62;60.16;102016.81;5018213;28;20037;-83
2022/07/30 06:05:19;;;;;;;0.10;0.10;;;;;;;19.68;59.96;102021.94;5029710;28;20030;-81
2022/07/30 06:08:07;;;;;;;0.03;0.03;;;;;;;19.77;59.76;102017.16;5030005;28;20066;-83
2022/07/30 06:10:50;;;;;;;0.10;0.10;;;;;;;19.82;59.56;102015.16;5029567;28;20051;-83
2022/07/30 06:13:16;;;;;;;0.10;0.10;;;;;;;19.79;59.42;102017.94;5025174;28;20033;-81
2022/07/30 06:15:42;;;;;;;0.10;0.10;;;;;;;19.71;59.37;102024.53;5026034;28;20043;-82
2022/07/30 06:18:08;;;;;;;0.10;0.10;;;;;;;19.84;59.17;102019.56;5026178;28;20069;-82
2022/07/30 06:20:34;;;;;;;0.10;0.10;;;;;;;19.87;59.13;102018.56;5028033;28;20030;-79
2022/07/30 06:23:00;;;;;;;0.10;0.10;;;;;;;19.83;58.48;102028.56;5027045;28;20036;-80
2022/07/30 06:25:27;;;;;;;0.10;0.10;;;;;;;19.87;58.44;102027.47;5025533;28;20303;-80
2022/07/30 06:27:53;;;;;;;0.10;0.10;;;;;;;19.98;58.37;102020.81;5024533;28;20483;-79
2022/07/30 06:30:19;;;;;;;0.13;0.13;;;;;;;20.04;57.67;102020.56;5031304;28;20032;-79
2022/07/30 06:32:46;;;;;;;0.00;0.00;;;;;;;20.10;57.49;102022.09;5024602;28;20039;-79
2022/07/30 06:35:12;;;;;;;0.00;0.00;;;;;;;20.12;57.42;102018.41;5027281;28;20395;-81
2022/07/30 06:37:41;;;;;;;0.03;0.03;;;;;;;20.20;57.45;102026.19;5025403;28;20087;-80
2022/07/30 06:40:08;;;;;;;0.10;0.10;;;;;;;20.25;57.53;102023.28;5026174;28;20530;-80
2022/07/30 06:42:34;;;;;;;0.28;0.28;;;;;;;20.28;57.18;102026.72;5028973;28;20034;-80
2022/07/30 06:45:00;;;;;;;0.00;0.00;;;;;;;20.37;57.46;102022.75;5029592;28;20037;-79
2022/07/30 06:47:28;;;;;;;0.00;0.00;;;;;;;20.35;57.09;102021.97;5029135;28;20070;-79
2022/07/30 06:49:55;;;;;;;0.00;0.00;;;;;;;20.39;56.84;102025.38;5031840;28;20025;-80
2022/07/30 06:52:21;;;;;;;0.00;0.00;;;;;;;20.40;56.52;102021.75;5030104;28;20498;-82
2022/07/30 06:54:47;;;;;;;0.00;0.00;;;;;;;20.52;56.73;102021.22;5027376;28;20052;-81
2022/07/30 06:57:14;;;;;;;0.00;0.00;;;;;;;20.58;56.72;102023.66;5040626;28;20024;-82
2022/07/30 06:59:46;;;;;;;0.00;0.00;;;;;;;20.56;55.74;102017.47;5031931;28;20029;-82
2022/07/30 07:02:17;;;;;;;0.10;0.10;;;;;;;20.68;55.98;102016.91;5028868;28;20049;-81
2022/07/30 07:04:49;;;;;;;0.00;0.00;;;;;;;20.73;55.57;102018.59;5032757;28;20034;-82
2022/07/30 07:07:32;;;;;;;0.10;0.10;;;;;;;20.71;54.91;102023.13;5035013;28;20052;-85
2022/07/30 07:09:58;;;;;;;0.10;0.10;;;;;;;20.79;54.56;102023.72;5027643;28;20029;-85
2022/07/30 07:12:27;;;;;;;0.00;0.00;;;;;;;20.80;54.95;102026.31;5030905;28;20037;-83
2022/07/30 07:14:53;;;;;;;0.05;0.05;;;;;;;20.90;55.10;102032.19;5035545;28;20510;-83
2022/07/30 07:17:19;;;;;;;0.08;0.08;;;;;;;20.96;55.25;102033.69;5025178;28;20395;-83
2022/07/30 07:19:46;;;;;;;0.05;0.05;;;;;;;21.03;55.08;102026.25;5029216;28;20026;-83
2022/07/30 07:22:12;;;;;;;0.00;0.00;;;;;;;21.08;54.78;102022.38;5031848;28;20032;-83
2022/07/30 07:24:38;;;;;;;0.10;0.10;;;;;;;21.03;54.44;102031.63;5032543;28;20029;-84
2022/07/30 07:27:11;;;;;;;0.00;0.00;;;;;;;21.13;54.76;102032.94;5029562;28;20038;-83
2022/07/30 07:29:37;;;;;;;0.08;0.08;;;;;;;21.10;55.12;102025.88;5040241;28;20033;-85
2022/07/30 07:32:03;;;;;;;0.00;0.00;;;;;;;21.23;54.88;102033.41;5034232;28;20029;-83
2022/07/30 07:34:30;;;;;;;0.10;0.10;;;;;;;21.25;54.14;102027.00;5021826;28;20032;-84
2022/07/30 07:36:57;;;;;;;0.00;0.00;;;;;;;21.32;54.11;102033.84;5031552;28;20029;-82
2022/07/30 07:39:23;;;;;;;0.20;0.20;;;;;;;21.41;54.44;102032.56;5044361;28;20044;-82
2022/07/30 07:41:49;;;;;;;0.10;0.10;;;;;;;21.46;54.29;102027.81;5034687;28;20033;-82
2022/07/30 07:44:15;;;;;;;0.05;0.05;;;;;;;21.52;53.94;102032.06;5034345;28;20051;-82
2022/07/30 07:46:41;;;;;;;0.03;0.03;;;;;;;21.58;53.73;102039.88;5031480;28;20034;-83
2022/07/30 07:49:07;;;;;;;0.00;0.00;;;;;;;21.64;53.54;102036.88;5031097;28;20021;-83
2022/07/30 07:51:34;;;;;;;0.00;0.00;;;;;;;21.72;53.37;102036.53;5030116;28;20076;-81
2022/07/30 07:54:01;;;;;;;0.10;0.10;;;;;;;21.74;53.35;102042.69;5031504;28;20029;-83
2022/07/30 07:56:27;;;;;;;0.57;0.57;;;;;;;21.84;52.56;102043.13;5033367;28;20037;-83
2022/07/30 07:58:53;;;;;;;0.03;0.03;;;;;;;21.80;52.11;102033.44;5034925;28;20060;-82
2022/07/30 08:01:20;;;;;;;0.25;0.25;;;;;;;21.93;52.00;102039.09;5034062;28;20535;-83
2022/07/30 08:03:47;;;;;;;0.10;0.10;;;;;;;21.96;51.55;102026.34;5034231;28;20037;-82
2022/07/30 08:06:13;;;;;;;0.10;0.10;;;;;;;21.98;50.05;102029.84;5034575;28;20289;-84
2022/07/30 08:08:39;;;;;;;0.70;0.15;;;;;;;22.07;50.32;102030.31;5033772;28;20026;-83
2022/07/30 08:11:09;;;;;;;0.00;0.00;;;;;;;22.14;49.85;102021.88;5034228;28;20102;-83
2022/07/30 08:13:35;;;;;;;0.10;0.10;;;;;;;22.17;49.19;102030.75;5035240;28;20137;-83
2022/07/30 08:16:01;;;;;;;0.10;0.10;;;;;;;22.21;48.66;102029.66;5034689;28;20180;-83
2022/07/30 08:18:28;;;;;;;0.00;0.00;;;;;;;22.29;50.27;102035.53;5034407;28;20487;-83
2022/07/30 08:20:54;;;;;;;0.00;0.00;;;;;;;22.39;48.91;102023.38;5033627;28;20021;-82
2022/07/30 08:23:21;;;;;;;0.10;0.10;;;;;;;22.45;48.36;102028.44;5034116;28;20038;-82
2022/07/30 08:25:47;;;;;;;0.10;0.10;;;;;;;22.55;48.36;102030.66;5034812;28;20029;-83
2022/07/30 08:28:14;;;;;;;0.10;0.10;;;;;;;22.58;46.99;102020.56;5038410;28;20606;-82
2022/07/30 08:30:40;;;;;;;0.10;0.10;;;;;;;22.66;47.39;102022.88;5035311;28;20026;-81
2022/07/30 08:33:06;;;;;;;0.52;0.28;;;;;;;22.69;46.59;102017.31;5036953;28;20033;-82
2022/07/30 08:35:32;;;;;;;0.00;0.00;;;;;;;22.78;46.48;102015.97;5037095;28;20030;-82
2022/07/30 08:37:58;;;;;;;0.00;0.00;;;;;;;22.88;46.87;102016.31;5035729;28;20051;-82
2022/07/30 08:40:25;;;;;;;0.05;0.05;;;;;;;23.00;47.81;102020.19;5034747;28;20021;-81
2022/07/30 08:42:52;;;;;;;0.08;0.08;;;;;;;23.07;48.03;102010.81;5034853;28;20041;-81
2022/07/30 08:45:19;;;;;;;0.10;0.10;;;;;;;23.12;47.31;102014.13;5036501;28;20055;-81
2022/07/30 08:47:47;;;;;;;0.10;0.10;;;;;;;23.17;46.71;102012.06;5037850;28;20468;-82
2022/07/30 08:50:13;;;;;;;0.10;0.10;;;;;;;23.05;45.24;102026.22;5037279;28;20022;-82
2022/07/30 08:52:41;;;;;;;0.10;0.10;;;;;;;23.18;43.96;102024.66;5036233;28;20029;-81
2022/07/30 08:55:10;;;;;;;0.10;0.10;;;;;;;23.29;43.24;102020.47;5036685;28;20535;-82
2022/07/30 08:57:37;;;;;;;0.10;0.10;;;;;;;23.35;43.67;102023.72;5037628;28;20097;-82
2022/07/30 09:00:05;;;;;;;0.10;0.10;;;;;;;23.47;43.63;102026.69;5036558;28;20025;-82
2022/07/30 09:02:32;;;;;;;0.10;0.10;;;;;;;23.59;44.82;102029.56;5035475;28;20033;-82
2022/07/30 09:04:58;;;;;;;0.20;0.20;;;;;;;23.65;44.60;102031.06;5036777;28;20491;-83
2022/07/30 09:07:25;;;;;;;0.05;0.05;;;;;;;23.79;44.37;102030.28;5036658;28;20446;-82
2022/07/30 09:09:51;;;;;;;0.00;0.00;;;;;;;23.82;44.11;102027.38;5036536;28;20025;-83
2022/07/30 09:12:39;;;;;;;0.00;0.00;;;;;;;23.99;43.54;102033.69;5035959;28;20041;-83
2022/07/30 09:20:34;;;;;;;0.00;0.00;;;;;;;24.10;42.02;102038.47;5118617;27;1220231;-81
2022/07/30 09:23:03;;;;;;;8.13;2.47;;;;;;;24.35;42.77;102040.59;5132788;27;20066;-82
2022/07/30 09:28:13;;;;;;;0.10;0.10;;;;;;;24.42;42.14;102033.88;5092758;28;20412;-82
2022/07/30 09:30:49;;;;;;;0.10;0.10;;;;;;;24.57;41.72;102036.63;5092493;28;20032;-80
2022/07/30 09:33:32;;;;;;;0.00;0.00;;;;;;;24.59;39.97;102026.59;5094908;28;20036;-82
2022/07/30 09:35:58;;;;;;;0.00;0.00;;;;;;;24.62;40.64;102023.66;5093919;28;20016;-83
2022/07/30 09:38:25;;;;;;;0.10;0.10;;;;;;;24.73;42.19;102025.75;5093899;28;20037;-82
2022/07/30 09:40:53;;;;;;;0.10;0.10;;;;;;;24.82;41.56;102020.66;5093346;28;20024;-83
2022/07/30 09:43:19;;;;;;;0.00;0.00;;;;;;;24.89;39.53;102029.25;5094138;28;20035;-82
2022/07/30 09:45:57;;;;;;;0.10;0.10;;;;;;;25.03;40.44;102026.59;5094238;28;20035;-83
2022/07/30 09:48:25;;;;;;;0.00;0.00;;;;;;;25.09;40.13;102019.03;5094187;28;20020;-83
2022/07/30 09:50:53;;;;;;;0.05;0.05;;;;;;;25.25;41.21;102016.22;5092982;28;20028;-83
2022/07/30 09:53:21;;;;;;;0.00;0.00;;;;;;;25.22;39.34;102016.41;5094179;28;20088;-83
2022/07/30 09:55:48;;;;;;;0.00;0.00;;;;;;;25.45;40.79;102018.53;5093748;28;20579;-82
2022/07/30 09:58:14;;;;;;;0.10;0.10;;;;;;;25.53;39.08;102018.03;5093468;28;20031;-83
2022/07/30 10:00:41;;;;;;;0.10;0.10;;;;;;;25.66;39.24;102015.41;5093129;28;20036;-83
2022/07/30 10:03:24;;;;;;;0.10;0.10;;;;;;;25.82;39.40;102017.94;5093190;28;20097;-83
2022/07/30 10:05:53;;;;;;;0.10;0.10;;;;;;;25.82;39.57;102010.69;5094544;28;20107;-83
2022/07/30 10:08:36;;;;;;;0.00;0.00;;;;;;;25.88;39.67;102014.81;5094991;28;20024;-83
2022/07/30 10:11:03;;;;;;;0.10;0.10;;;;;;;25.86;37.54;102019.50;5093267;28;20032;-82
2022/07/30 10:13:29;;;;;;;0.20;0.20;;;;;;;26.01;38.52;102020.34;5093727;28;20040;-83
2022/07/30 10:15:56;;;;;;;0.10;0.10;;;;;;;26.21;39.76;102018.16;5093529;28;20035;-83
2022/07/30 10:18:23;;;;;;;0.05;0.05;;;;;;;26.38;36.86;102011.53;5094131;28;20020;-83
2022/07/30 10:20:50;;;;;;;0.10;0.10;;;;;;;26.57;38.73;102009.31;5088876;28;20029;-82
2022/07/30 10:23:16;;;;;;;0.20;0.20;;;;;;;26.72;39.00;102015.50;5087725;28;20032;-82
2022/07/30 10:25:43;;;;;;;0.10;0.10;;;;;;;26.83;39.05;102014.78;5087694;28;20026;-82
2022/07/30 10:28:10;;;;;;;0.20;0.20;;;;;;;26.90;38.78;102012.50;5087766;28;20025;-82
2022/07/30 10:30:37;;;;;;;0.10;0.10;;;;;;;26.98;38.70;102020.09;5087702;28;20382;-81
2022/07/30 10:33:06;;;;;;;0.10;0.10;;;;;;;27.02;38.95;102014.34;5087189;28;20036;-82
2022/07/30 10:35:32;;;;;;;0.00;0.00;;;;;;;27.12;38.73;102018.13;5087889;28;20421;-83
2022/07/30 10:37:59;;;;;;;0.03;0.03;;;;;;;27.26;39.47;102010.84;5084087;28;20326;-83
2022/07/30 10:40:39;;;;;;;0.10;0.10;;;;;;;27.41;38.20;102012.44;5074947;28;20064;-83
2022/07/30 10:46:47;;;;;;;0.10;0.10;;;;;;;27.67;35.08;102006.94;5096605;27;20396;-84
2022/07/30 10:49:16;;;;;;;0.10;0.10;;;;;;;27.73;34.88;102009.19;5094826;28;20035;-84
2022/07/30 10:51:44;;;;;;;0.10;0.10;;;;;;;27.88;35.22;102003.59;5093282;28;20129;-82
2022/07/30 11:02:59;;;;;;;0.73;0.73;;;;;;;28.91;35.72;102000.22;5109936;27;21089;-82
2022/07/30 11:05:27;;;;;;;0.20;0.20;;;;;;;29.01;35.19;101993.06;5109819;28;20398;-82
2022/07/30 11:07:53;;;;;;;0.10;0.10;;;;;;;29.09;34.27;101995.16;5110116;28;20023;-82
2022/07/30 11:10:40;;;;;;;0.00;0.00;;;;;;;29.11;32.87;101987.72;5111163;28;20024;-83
2022/07/30 11:13:07;;;;;;;0.20;0.20;;;;;;;29.04;34.61;101975.56;5121525;28;20031;-82
2022/07/30 11:15:55;;;;;;;0.08;0.08;;;;;;;28.86;32.92;101988.81;5118423;28;20031;-83
2022/07/30 11:18:23;;;;;;;0.10;0.10;;;;;;;28.89;33.86;101991.31;5112807;28;20060;-83
2022/07/30 11:21:18;;;;;;;0.00;0.00;;;;;;;28.86;33.53;101988.81;5110872;28;20032;-83
2022/07/30 11:23:45;;;;;;;0.10;0.10;;;;;;;28.80;33.15;101995.66;5069895;22;20049;-78
2022/07/30 11:29:37;;;;;;;0.10;0.10;;;;;;;28.86;34.76;101994.28;5114506;27;1319541;-77
2022/07/30 11:32:25;;;;;;;0.00;0.00;;;;;;;28.70;34.28;101990.06;5132135;27;20023;-77
2022/07/30 11:34:52;;;;;;;0.00;0.00;;;;;;;28.69;33.55;101991.03;5126443;27;20028;-77
2022/07/30 11:37:18;;;;;;;0.00;0.00;;;;;;;28.52;33.25;101991.47;5112745;28;20020;-77
2022/07/30 11:42:38;;;;;;;0.10;0.10;;;;;;;28.61;34.34;101993.47;5081294;28;20360;-80
2022/07/30 11:45:21;;;;;;;0.10;0.10;;;;;;;28.63;35.04;101994.22;5082204;28;20029;-78
2022/07/30 11:47:51;;;;;;;0.10;0.10;;;;;;;28.51;33.35;101985.16;5083625;28;20032;-80
2022/07/30 11:50:20;;;;;;;0.10;0.10;;;;;;;28.37;33.71;101988.09;5083831;28;20028;-80
2022/07/30 11:52:49;;;;;;;0.10;0.10;;;;;;;28.39;34.21;101992.44;5082939;28;20512;-78
2022/07/30 11:55:25;;;;;;;0.00;0.00;;;;;;;28.55;33.87;101988.53;5083647;28;20028;-79
2022/07/30 11:57:53;;;;;;;0.00;0.00;;;;;;;28.51;33.55;101989.72;5084116;28;20025;-79
2022/07/30 12:00:20;;;;;;;0.13;0.13;;;;;;;28.34;33.86;101983.75;5082787;28;20029;-79
2022/07/30 12:02:48;;;;;;;0.10;0.10;;;;;;;28.44;33.39;101985.75;5081776;28;20043;-79
2022/07/30 12:05:15;;;;;;;0.10;0.10;;;;;;;28.59;32.37;101984.56;5083270;28;20020;-80
2022/07/30 12:07:41;;;;;;;0.28;0.28;;;;;;;28.80;33.48;101986.56;5083297;28;20040;-80
2022/07/30 12:10:17;;;;;;;0.10;0.10;;;;;;;28.97;33.15;101991.53;5082676;28;20078;-80